Altheimer, AR

5:48 PM CDT on March 27, 2015 (GMT -0500)
Cornerstone Farms | | Change Station
CLOSE
Current Station
Personal Weather Station
Location: Altheimer, AR
Elevation: 203 ft
Nearby Weather Stations

Elev 203 ft 34.24 °N, 91.76 °W | Updated 3 minutes ago

Overcast
Overcast
53.0 °F
Feels Like 53.0 °F
N
8.0
Wind Variable Wind from NNW
Gusts 12.0 mph

Today
High -- | Low -- °F
--% Chance of Precip.
Yesterday
High -- | Low -- °F
Precip. -- in
7:01 AM 7:24 PM
First Quarter, 56% visible
Pressure 30.13 in
Visibility 10.0 miles
Clouds Few 3800 ft
Mostly Cloudy 8000 ft
Dew Point 39 °F
Humidity 59%
Rainfall 0.04 in
Snow Depth Not available.
UV 2 out of 12
Pollen 9.30 out of 12
Air Quality Not available.
Flu Activity Not available.
METAR KPBF 272153Z AUTO 36014G18KT 10SM FEW038 BKN080 12/04 A3013 RMK AO2 SLP203 T01170039

More Conditions Fewer Conditions

Pressure 30.13 in
Visibility 10.0 miles
Clouds Few 3800 ft
Mostly Cloudy 8000 ft
Dew Point 39 °F
Humidity 59%
Rainfall 0.04 in
Snow Depth Not available.
UV 2 out of 12
Pollen 9.30 out of 12
Air Quality Not available.
Flu Activity Not available.
METAR KPBF 272153Z AUTO 36014G18KT 10SM FEW038 BKN080 12/04 A3013 RMK AO2 SLP203 T01170039

More Conditions Fewer Conditions

10-Day Weather Forecast

Almanac

Astronomy

Mar. 27, 2015 Rise Set
Actual Time
Civil Twilight
Nautical Twilight
Astronomical Twilight
Moon
Length of Visible Light
Length of Day
Tomorrow will be .
, % of the Moon is Illuminated

Today's Extremes

State Highs State Lows

Community

WunderPhotos

Upload Photos

1,808,856 photos uploaded!

WunderBlogs® & News

Nearby

Air Quality

  Air Quality AQ Index Pollutant
Not available.

Snow Depth

Station Depth Elevation

Earthquake Activity

City Distance Mag. Time & Date
Minimum magnitude displayed is 2.5.

Coastal Water Temperatures

Place Temperature

Stations

Nearby Weather Stations

Station Location Temp. Windchill Dew Point Humidity Wind Precip. Elev Updated Type